METARS
Date METAR Location Area
29/03/2015 LG1B 290430Z 00003KT 10/08 Q1006 Arsakeio Athens
29/03/2015 LGY7 290830Z 00007KT 13/10 Q1008 Aegina Attica
29/03/2015 LG5C 290830Z 29302KT 14/10 Q1007 Alimos Attica
29/03/2015 LGH5 290930Z 04500KT 14/09 Q1007 Ampelokipoi Attica
29/03/2015 LGS5 290830Z 00001KT 14/11 Q1008 Anavissos Attica
29/03/2015 LGO0 290830Z 29302KT 14/10 Q1008 Ano Liosia Attica
29/03/2015 LG9B 290830Z 31503KT 13/09 Q1008 Aspropirgos Attica
29/03/2015 LGB9 290830Z 00000KT 14/10 Q1009 Athens - Gazi Attica
29/03/2015 LGL5 290830Z 00008KT 11/08 Q1012 Ekali Attica
29/03/2015 LGS3 290830Z 31502KT 15/09 Q1008 Faliro Attica
29/03/2015 LGM3 290830Z 06801KT 13/11 Q1009 Hydra Attica
29/03/2015 LGO2 290730Z 04503KT 07/06 Q1008 Imittos Attica
29/03/2015 LGT8 290830Z 20301KT 08/07 Q1009 Ippokratios Attica
29/03/2015 LG99 290830Z 29300KT 15/10 Q1009 Kantza Attica
29/03/2015 LG13 290900Z 00000KT 13/07 Q1009 Kifissia Attica
29/03/2015 LG3C 290830Z 33804KT 13/09 Q1007 Korydallos Attica
29/03/2015 LGD6 290830Z 00008KT 14/11 Q1007 Lavrio Attica
29/03/2015 LGK0 290830Z 00005KT 14/09 Q1008 Marousi Attica
29/03/2015 LG00 290910Z 00000KT 14/08 Q1006 Marousi (Anavrita) Attica
29/03/2015 LGR0 290830Z 31501KT 15/10 Q1008 Nea Smirni Attica
29/03/2015 LGM8 290830Z 29300KT 14/10 Q1010 Neos Kosmos Attica
29/03/2015 LGK3 290830Z 00009KT 03/03 Q1008 Parnitha 1230 EAA Attica
29/03/2015 LGT6 290730Z 02300KT 13/10 Q1009 Patissia Attica
29/03/2015 LGX9 290830Z 00002KT 12/09 Q1006 Penteli Attica
29/03/2015 LG67 290900Z 0451728G11286KT 139/91 Q10085 Penteli Attica
29/03/2015 LGU0 290830Z 31500KT 14/09 Q1008 Peristeri Attica
29/03/2015 LGY6 290830Z 04510KT 14/10 Q1008 Porto Rafti Attica
29/03/2015 LG96 290830Z 29301KT 15/10 Q1008 Psychico Attica
29/03/2015 LGZ0 290830Z 00008KT 14/10 Q1008 Rafina Attica
29/03/2015 LG2B 290830Z 33807KT 14/09 Q1008 SEF Attica
29/03/2015 LGG2 290930Z 04504KT 15/10 Q1007 Spata Attica
29/03/2015 LGS6 290830Z 29303KT 13/12 Q1008 Spetses Attica
29/03/2015 LG3B 290830Z 06803KT 14/08 Q1009 Tatoi Attica
29/03/2015 LGZ2 290830Z 06803KT 15/10 Q1008 Vari Attica
29/03/2015 LGR6 290830Z 00007KT 09/07 Q1009 Vilia Attica
28/03/2015 LG74 281900Z 00000G31104KT 139/105 Q10044 Ymittos Attica
29/03/2015 LGG1 290900Z 0452592G10422KT 138/95 Q178 Kalivia Thorikou Attica E
29/03/2015 LG45 290830Z 06803KT 14/11 Q1009 Markopoulo Attica E
29/03/2015 LG72 290400Z 00000KT 104/91 Q10041 Keratea Attica SE
26/03/2015 LGW4 262030Z 04506G20KT 14/09 Q 999 Ag. Ioannis Sfakion Crete
29/03/2015 LGJ9 290830Z 15814KT 14/10 Q1007 Aghios Nikolaos Crete
29/03/2015 LGT4 290830Z 02304KT 18/09 Q1006 Alikianos Crete
29/03/2015 LGB6 290830Z 00002KT 10/06 Q1005 Anogeia Crete
29/03/2015 LGZ6 290830Z 02301KT 12/06 Q1009 Askyfou Crete
29/03/2015 LG25 290930Z 31504KT 19/11 Q1006 Chania Crete
29/03/2015 LGN3 290830Z 02303KT 17/09 Q1007 Chania Center Crete
27/03/2015 LG61 270730Z 22508KT 20/15 Q1005 Cost - Irakleio Crete
29/03/2015 LG2C 290930Z 27002KT 13/08 Q1007 Elos Crete
29/03/2015 LGL9 290830Z 22508KT 16/11 Q1006 Falasarna Crete
29/03/2015 LG9A 290530Z 15802KT 12/08 Q1005 Finokalia - Lasithi Crete
29/03/2015 LGL1 290930Z 27001KT 14/06 Q1006 Fourfouras Crete
29/03/2015 LGD4 290930Z 00007KT 16/09 Q1007 Fragmapotamon - Rethymno Crete
29/03/2015 LG30 290830Z 29302KT 17/08 Q1007 Heraklion - Knossos Crete
29/03/2015 LG95 290830Z 18005KT 14/10 Q1010 Ierapetra Crete
27/03/2015 LGP0 271730Z 29302KT 16/13 Q1007 Lentas Hrakleion Crete
16/03/2015 LGD7 162130Z 27006KT 07/05 Q1020 Metaxochori - Heraklion Crete
29/03/2015 LGI2 290830Z 27003KT 17/10 Q1006 Mires Crete
29/03/2015 LG36 290830Z 27002KT 17/12 Q1007 Paleochora Crete
29/03/2015 LG8A 290830Z 09006KT 14/10 Q1007 Pirathi Heraklion Crete
29/03/2015 LG58 290830Z 29302KT 16/11 Q1005 Rethymno Crete
22/03/2015 LGT2 221530Z 00000KT 16/08 Q1018 Rethymno - Plakia Crete
29/03/2015 LGY1 290830Z 13501KT 12/11 Q1009 Samaria Crete
29/03/2015 LGB4 290830Z 33800KT 09/04 Q1009 Samaria Crete
29/03/2015 LGM2 290830Z 18009KT -RA 12/10 Q1007 Sitia Crete
29/03/2015 LG75 290830Z 24802KT 14/06 Q1008 Spili - Rethymnon Crete
29/03/2015 LG8B 290830Z 13507KT 16/09 Q1007 Stavrakia - Heraclion Crete
29/03/2015 LG50 290830Z 22500KT 11/06 Q1006 Tzermiado Lasithi Crete
29/03/2015 LG7B 290830Z 27001KT 15/10 Q1007 Vagionia - Heraklion Crete
29/03/2015 LG70 290830Z 11303KT 18/07 Q1006 Vrysses Crete
29/03/2015 LGT5 290830Z 20305KT 16/11 Q1007 Amorgos Cyclades
29/03/2015 LGN6 290830Z 02311KT 14/10 Q1008 Andros Cyclades
20/03/2015 LGS7 200830Z 02317KT 11/07 Q1017 Donoussa Cyclades
29/03/2015 LGI0 290830Z 31503KT 15/11 Q1008 Ios Cyclades
13/03/2015 LGP2 132130Z 00000KT 06/00 Q 0 Ioulida - Kea Cyclades
29/03/2015 LGP5 290830Z 27002KT 16/12 Q1008 Iraklia Cyclades
29/03/2015 LGE3 290930Z 06801KT 12/11 Q1009 Kea Cyclades
29/03/2015 LGX8 290830Z 27003KT 18/13 Q1008 Koufonissia Cyclades
29/03/2015 LGS0 290830Z 27002KT 13/12 Q1009 Milos Cyclades
29/03/2015 LG66 290830Z 00013KT 14/11 Q1008 Mykonos Cyclades
29/03/2015 LGM0 290830Z 00000KT 16/12 Q1008 Naxos Cyclades
29/03/2015 LGV3 290830Z 11300KT -RA 09/08 Q1007 Naxos - Apiranthos Cyclades
29/03/2015 LGT0 290830Z 31502KT 16/12 Q1008 Naxos - Apollonas Cyclades
29/03/2015 LGU1 290830Z 29300KT 14/11 Q1008 Naxos - Damarionas Cyclades
29/03/2015 LGU2 290830Z 06803KT 12/09 Q1008 Naxos - Koronos Cyclades
29/03/2015 LGN7 290830Z 31501KT 13/12 Q1007 Naxos - Kynidaros Cyclades
29/03/2015 LGW1 290830Z 29301KT 15/11 Q1008 Naxos - Melanes Cyclades
29/03/2015 LGO7 290830Z 29303KT 16/12 Q1008 Naxos - Mikri Vigla Cyclades
29/03/2015 LG02 290830Z 27001KT 16/12 Q1009 Paros Cyclades
29/03/2015 LGX5 290830Z 33803KT +RA 13/11 Q1006 Santorini Cyclades
29/03/2015 LGX7 290830Z 27005KT 16/12 Q1008 Schinoussa Cyclades
29/03/2015 LG07 290830Z 00000KT 213/64 Q10053 Tinos Cyclades
22/03/2015 LGB8 222230Z 29301KT 12/08 Q1018 Tinos NOA Cyclades
29/03/2015 LGAB 290930Z 20308KT 12/07 Q1007 Emponas - Rhodes Dodecanese
27/03/2015 LGG6 270830Z 11314G25KT 18/11 Q1010 Kalymnos Dodecanese
28/03/2015 LGAC 281030Z 18009KT 18/15 Q1005 Kattavia - Rhodes Dodecanese
29/03/2015 LGAA 290930Z 15802KT 16/11 Q1009 Lindos - Rhodes Dodecanese
29/03/2015 LG65 290830Z 24801KT -RA 13/12 Q1008 Patmos Dodecanese
29/03/2015 LGS9 290830Z 22503KT 13/11 Q1010 Rhodes Dodecanese
29/03/2015 LGM5 290830Z 18006KT 18/13 Q1007 Kasos Dodecanisa
29/03/2015 LGX1 290830Z 15801KT 14/12 Q1009 Kos Dodekanissa
29/03/2015 LG4A 290330Z 22503KT 13/11 Q1005 Chios East Aegean
14/03/2015 LG6C 141600Z 31504KT +RA 11/06 Q 8 Chios Town East Aegean
29/03/2015 LGT1 290830Z 00000KT 16/12 Q1007 Fournoi East Aegean
27/03/2015 LGI9 271130Z 13517KT 13/12 Q1002 Ikaria East Aegean
29/03/2015 LGI5 290830Z 02309KT 13/11 Q1006 Lemnos East Aegean
23/03/2015 LGI6 231330Z 15803KT 12/08 Q1016 Lesvos East Aegean
29/03/2015 LGJ3 290830Z 15804KT -RA 12/11 Q1011 Lesvos - Thermi East Aegean
20/03/2015 LGZ7 201530Z 33807KT 18/07 Q1018 Mantamados East Aegean
29/03/2015 LGY5 290730Z 33802KT 13/12 Q1009 Molyvos East Aegean
29/03/2015 LGF1 290930Z 18004KT 16/12 Q1006 Samos East Aegean
29/03/2015 LGW7 290830Z 33813KT 12/10 Q1007 Akrotirio Paksimada Evia
29/03/2015 LGO3 290930Z 27006KT 12/09 Q1008 Chalkida Evia
29/03/2015 LGR5 290730Z 31523KT 09/08 Q1008 Kavodoro Evia
09/03/2015 LGY0 090700Z 11300KT 09/05 Q1034 Krieza Evia
29/03/2015 LGX0 290830Z 31506KT 11/07 Q1010 Kymi Evia
25/03/2015 LGT7 251000Z 27004KT 09/07 Q1011 Setta Evia
29/03/2015 LG81 290830Z 06810KT 11/06 Q1008 Steni Evia
27/03/2015 LGC4 271330Z 18012G23KT 17/15 Q1003 Styra Evia
29/03/2015 LGD3 290830Z 27006KT 12/10 Q1010 Zarakes Evia
29/03/2015 LGP6 290830Z 00003KT 13/07 Q1009 Agia Kyriaki Ioanninon Hepirus
29/03/2015 LGO1 290830Z 00006KT 12/04 Q1010 Aridaia Hepirus
29/03/2015 LGD2 290930Z 15802KT 15/11 Q1008 Arta - Kompoti Hepirus
29/03/2015 LG38 290930Z 27002KT 16/10 Q1008 Arta - Vlacherna Hepirus
20/03/2015 LGE4 201230Z 33806G18KT 07/M08 Q1019 Aspraggeloi Hepirus
29/03/2015 LGI3 290830Z 09001KT 11/05 Q1008 Derviziana Hepirus
29/03/2015 LGP4 290830Z 29302KT 13/06 Q1008 Dodoni Hepirus
02/03/2015 LGL8 021430Z 02304KT 24/07 Q1015 Grammos Hepirus
29/03/2015 LG43 290930Z 09002KT 16/09 Q1008 Igoumenitsa Hepirus
29/03/2015 LG49 290830Z 06803KT 13/07 Q1007 Ioannina Anatoli Hepirus
29/03/2015 LGK1 290830Z 09000KT 15/07 Q1008 Kanali, Preveza Hepirus
29/03/2015 LGE0 290830Z 31501KT 10/06 Q1009 Katarraktis - Arta Hepirus
26/03/2015 LGO5 262030Z 04507KT -RA 08/05 Q1007 Kerasovo Konitsa Hepirus
29/03/2015 LG3A 290730Z 18002KT 11/05 Q1009 Konitsa Hepirus
29/03/2015 LGO8 290930Z 04503KT 07/02 Q1008 Metsovo Hepirus
29/03/2015 LGK6 290230Z 33800KT 03/02 Q1008 Papigo Hepirus
29/03/2015 LGF6 290630Z 06802KT 06/03 Q1007 Paramythia Hepirus
29/03/2015 LGK9 290830Z 27001KT 15/10 Q1011 Parga Hepirus
29/03/2015 LGK7 290530Z 29302KT 07/04 Q1007 Pesta Hepirus
29/03/2015 LGY9 290630Z 27001KT 02/01 Q1008 Plikati Ioanninon Hepirus
29/03/2015 LGP1 290830Z 06802KT 11/05 Q1009 Pramanta Hepirus
29/03/2015 LGK2 290830Z 18003KT 10/05 Q1008 Theodoriana, Arta Hepirus
29/03/2015 LGD0 290830Z 22502KT 11/03 Q1007 Tristeno - Ioannina Hepirus
29/03/2015 LGM4 290830Z 02301KT 14/08 Q1008 Tyria Hepirus
29/03/2015 LGR8 290830Z 18002KT 12/06 Q1008 Vourgareli Artas Hepirus
29/03/2015 LGN9 290730Z 09001KT 07/02 Q1010 Vovoussa Hepirus
29/03/2015 LGN0 290830Z 24801KT 12/06 Q1008 Zitsa Hepirus
29/03/2015 LGJ2 290830Z 06803KT 16/12 Q1008 Corfu - Gouvia Ionio
29/03/2015 LGB0 290830Z 33801KT 15/12 Q1008 Ithaki Ionio
29/03/2015 LGI7 290830Z 31504KT 15/10 Q1010 Lefkada Ionio
29/03/2015 LGN1 290830Z 02303KT 15/10 Q1008 Paxoi Ionio
29/03/2015 LGN4 290830Z 02303KT 16/11 Q1008 Zakynthos Ionio
29/03/2015 LGG9 290830Z 00004KT 08/03 Q1009 Amynteo Macedonia
29/03/2015 LG33 290930Z 02308KT 11/05 Q1008 Chalkidiki - Polygyros Macedonia
13/03/2015 LGJ1 131730Z 33803KT 09/06 Q1016 Chalkidiki - Stratoni Macedonia
29/03/2015 LGZ5 290830Z 31507KT 12/09 Q1009 Didymoteicho Macedonia
29/03/2015 LG55 290830Z 00004KT 15/06 Q1008 Dion Macedonia
29/03/2015 LGU8 290830Z 33801KT 13/09 Q1008 Doxato - Drama Macedonia
29/03/2015 LGH3 290850Z 17701KT 14/09 Q1008 Drama Macedonia
29/03/2015 LGH6 290730Z 18001KT 10/07 Q1007 Drama 2 Macedonia
29/03/2015 LGY3 290830Z 02303KT 13/09 Q1009 Eleutheroupoli Macedonia
29/03/2015 LGJ6 290850Z 17104KT 03/01 Q1007 Falakro Macedonia
28/03/2015 LG63 281630Z 33804KT 06/05 Q1010 Florina Macedonia
29/03/2015 LGZ8 290830Z 15802KT 14/09 Q1008 Fotolivos Macedonia
29/03/2015 LG73 290830Z 11300KT 13/07 Q1009 Giannitsa Macedonia
29/03/2015 LGF2 290830Z 00002KT 12/05 Q1009 Grevena Macedonia
29/03/2015 LGO4 290830Z 31505KT 09/05 Q1010 Hmathia - Rizomata Macedonia
29/03/2015 LG93 290830Z 22502KT M01/M03 Q1010 Kaimaktsalan Macedonia
29/03/2015 LGO9 290830Z 31507KT 14/09 Q1008 Kassandreia (Xalkidiki) Macedonia
21/03/2015 LGC0 211600Z 22501KT 13/M01 Q1022 Kastoria Macedonia
29/03/2015 LG27 290850Z 14901KT 12/10 Q1009 Kavala - Dexameni Macedonia
29/03/2015 LG42 290830Z 29310KT 12/06 Q1008 Kilkis Macedonia
29/03/2015 LGW8 290830Z 02311G22KT 13/07 Q1009 Kimisi Macedonia
29/03/2015 LGJ4 290830Z 33810KT 09/05 Q1012 Kozani - Ardassa Macedonia
29/03/2015 LGP3 290130Z 00000KT 00/M01 Q1007 Lailias - Serres Macedonia
29/03/2015 LGZ9 290830Z 33806KT 09/04 Q1010 Mavropigi Macedonia
29/03/2015 LG40 290830Z 02301KT 12/04 Q1010 Naousa Macedonia
29/03/2015 LG4B 290830Z 00003KT 15/09 Q1008 Nea Peramos Macedonia
29/03/2015 LGZ4 290930Z 27007KT 14/09 Q1008 Neos Marmaras Macedonia
29/03/2015 LG48 290830Z 15801KT 09/05 Q1008 Nevrokopi Drama Macedonia
29/03/2015 LGS4 290830Z 33805KT 07/03 Q1009 Notio Pedio - Eordea Macedonia
29/03/2015 LGW0 290830Z 00000KT 12/07 Q1009 Paranesti Macedonia
29/03/2015 LG26 290830Z 33811KT 09/03 Q1008 Ptolemaida Macedonia
29/03/2015 LG87 290830Z 00002KT 01/00 Q1010 Seli Ski Center Macedonia
29/03/2015 LGW6 290830Z 13502KT 13/09 Q1010 Serres Macedonia
29/03/2015 LGD9 290830Z 09004KT 14/08 Q1009 Serres - Kerkini Macedonia
29/03/2015 LG14 282200Z 00000G31104KT 83/76 Q10056 Serres - Proti Macedonia
29/03/2015 LG5B 290830Z 06802KT -RA 11/10 Q1008 Thasos Macedonia
07/03/2015 LGY8 071419Z 31505KT 9999 SCT036 10/00 Q1010 Thassos Macedonia
29/03/2015 LGR9 290830Z 33806KT 13/07 Q1009 Thessaloniki Macedonia
29/03/2015 LGF0 290830Z 33803KT 09/03 Q1009 Variko Macedonia
27/03/2015 LG82 272330Z 27005KT 01/M02 Q1003 Vassilitsa Macedonia
29/03/2015 LGC2 290430Z 00000KT 11/07 Q1005 Vatopedi - Athos Macedonia
29/03/2015 LGE9 290730Z 06801KT 08/04 Q1012 Vegoritida Macedonia
29/03/2015 LGE5 290830Z 31505KT 14/07 Q1009 Veroia Macedonia
29/03/2015 LG98 290730Z 06805KT 04/01 Q1009 Vlasti - Kozani Macedonia
29/03/2015 LGF5 290901Z 09200KT 09/07 Q1008 Vounochori - Kavala Macedonia
26/03/2015 LGU5 261330Z 06805KT -RA 13/11 Q1014 Agioi Theodoroi Peloponissos
29/03/2015 LGU7 290830Z 24800KT -RA 10/09 Q1006 Alagonia - Messinia Peloponissos
29/03/2015 LG52 290830Z 29304KT 16/13 Q1006 Amaliada Peloponissos
29/03/2015 LG77 290830Z 06801KT 11/08 Q1008 Andritsaina Peloponissos
29/03/2015 LGU6 290830Z 11300KT 15/13 Q1008 Arfara - Messinia Peloponissos
29/03/2015 LGT3 290830Z 31506KT 13/10 Q1009 Argos Peloponissos
29/03/2015 LGV0 290830Z 09000KT 13/11 Q1008 Derveni Peloponissos
28/03/2015 LGK4 280730Z 15801KT -RA 03/02 Q1021 Elati Peloponissos
29/03/2015 LGC3 290830Z 06803KT 12/09 Q1006 Foloi - Ilia Peloponissos
28/03/2015 LGX6 281130Z 18008KT 16/11 Q1003 Geraki Peloponissos
29/03/2015 LGB7 290830Z 02305KT 15/11 Q1007 Ilia - Vartholomio Peloponissos
29/03/2015 LG85 290830Z 24803KT 14/12 Q1008 Isthmos Peloponissos
29/03/2015 LG6A 290830Z 33802KT 16/12 Q1008 Kalamata Peloponissos
29/03/2015 LGV7 290830Z 11300KT 09/08 Q1008 Kalavryta Peloponissos
17/03/2015 LGZ3 171030Z 09008KT 13/05 Q1030 Kardamyli Peloponissos
29/03/2015 LGJ5 290830Z 00000KT 16/13 Q1008 Katakolo Peloponissos
29/03/2015 LGP7 290930Z 31500KT 10/08 Q1008 006 Kato Vlassia Peloponissos
27/03/2015 LGB2 272000Z 20301KT 27/23 Q1011 Katoachaia Peloponissos
20/03/2015 LGB5 200930Z 31535KT 06/01 Q1018 Kavomalias Peloponissos
29/03/2015 LGM7 290830Z 02302KT -RA 13/12 Q1009 Kranidi Peloponissos
29/03/2015 LGV1 290830Z 20301KT 17/12 Q1007 Kyparissia Peloponissos
29/03/2015 LGW9 290830Z 02302KT 08/06 Q1007 Lagadia Peloponissos
29/03/2015 LG0A 290830Z 11300KT 10/08 Q1009 Lampia - Ilia Peloponissos
29/03/2015 LG92 290830Z 00005KT 15/11 Q1006 Lappa-Larissos-Achaia Peloponissos
29/03/2015 LG4C 290830Z 06800KT -RA 09/07 Q1008 Levidi Peloponissos
07/03/2015 LG91 070630Z 00000KT 21/15 Q1012 Lousika-Olenias-Achaia Peloponissos
29/03/2015 LGV4 290830Z 22501KT 12/10 Q1008 Lykochia Peloponissos
29/03/2015 LGG5 290830Z 00002KT 12/10 Q1008 Megalopoli Peloponissos
20/03/2015 LGV2 200930Z 00011KT 10/M01 Q1020 Messinia - Kopanaki Peloponissos
29/03/2015 LGF8 290830Z 20303KT 15/11 Q1007 Molaoi Peloponissos
29/03/2015 LG56 290830Z 02308KT 15/12 Q1008 Monemvasia Peloponissos
29/03/2015 LGE1 290830Z 02304KT 11/10 Q1008 Nemea Peloponissos
29/03/2015 LGD5 290830Z 20300KT 15/11 Q1007 Oleni - Ilia Peloponissos
29/03/2015 LGB3 290830Z 11303KT 15/12 Q1007 Olympia Peloponissos
29/03/2015 LGV6 290830Z 09008KT 02/02 Q1008 Panachaiko Oros Peloponissos
29/03/2015 LGZ1 290830Z 09011KT 15/09 Q1006 Patra Peloponissos
28/03/2015 LG79 281905Z 00000KT 142/108 Q10052 Patra - Agia Peloponissos
29/03/2015 LG71 290900Z 270864G3456KT 186/117 Q10072 Patra - Drosia Peloponissos
29/03/2015 LG84 290830Z 04512KT 16/11 Q1007 Patra - Port Peloponissos
29/03/2015 LG59 290930Z 13503KT 18/11 Q1006 Pirgos Peloponissos
29/03/2015 LGH8 290830Z 04511KT -RA 15/11 Q1007 Rio Peloponissos
29/03/2015 LGT9 290930Z 20301KT 16/11 Q1006 Romanos - Patra Peloponissos
16/03/2015 LGA0 160730Z 09008KT 14/05 Q1027 Sagaiika Peloponissos
29/03/2015 LGF7 290830Z 31503KT 16/11 Q1006 Sparti Peloponissos
29/03/2015 LGS2 290830Z 11300KT 08/07 Q1008 Stemnitsa Peloponissos
29/03/2015 LGR1 290830Z 04501KT 06/06 Q1007 Trikala Korinthias Peloponissos
26/03/2015 LG83 260930Z 09007KT 11/11 Q1014 Tripoli Peloponissos
29/03/2015 LGU9 290830Z 02302KT 08/07 Q1007 Vytina Peloponissos
29/03/2015 LG86 290830Z 20303KT 16/12 Q1007 Zaxaro Peloponissos
29/03/2015 LGN2 290830Z 29316KT 12/08 Q1010 Alonissos Sporades
29/03/2015 LGI1 290830Z 29310KT 13/10 Q1008 Skyros Sporades
29/03/2015 LGH9 290830Z 00002KT 14/11 Q1010 Agrinio Sterea Ellada
27/03/2015 LGC7 271130Z 11303KT 17/14 Q1003 Aitoliko Sterea Ellada
29/03/2015 LG29 290930Z 15800KT 11/09 Q1009 Amfiklia Sterea Ellada
29/03/2015 LGH1 290550Z 00000KT 86/71 Q10084 Amfiklia 2 Sterea Ellada
28/03/2015 LGG8 280830Z 15800KT 13/11 Q1005 Antikira Sterea Ellada
29/03/2015 LG97 290910Z 00000KT 07/06 Q1008 Arachova Sterea Ellada
29/03/2015 LGC5 290830Z 04503KT 07/07 Q1010 Arahova Sterea Ellada
29/03/2015 LGH0 290830Z 29306KT 15/10 Q1007 Avlida Sterea Ellada
29/03/2015 LGR2 290830Z 00000KT 12/07 Q1007 Dam of Mornos Sterea Ellada
29/03/2015 LGR3 290830Z 24800KT 10/08 Q1009 Diakopi of Lidoriki Sterea Ellada
29/03/2015 LGW5 290830Z 27003KT 08/06 Q1009 Domokos Sterea Ellada
14/03/2015 LG21 141323Z 24804KT 29/15 Q1014 Evia - Chalkida Sterea Ellada
29/03/2015 LGY4 290830Z 18004KT 14/11 Q1009 Galaxidi Sterea Ellada
29/03/2015 LGC8 290900Z 00000G2592KT 148/133 Q10074 Gavalou - Aitol/nia Sterea Ellada
29/03/2015 LGJ7 290830Z 33800KT 10/09 Q1010 Kaparelli Sterea Ellada
29/03/2015 LGC9 290830Z 18003KT -RA 09/05 Q1009 Karpenisi Sterea Ellada
29/03/2015 LGP9 290830Z 27003KT 11/09 Q1007 Kleidi Viotias Sterea Ellada
29/03/2015 LGR4 290830Z 04505KT 10/05 Q1010 Koniakos of Lidoriki Sterea Ellada
29/03/2015 LG5A 290730Z 20304KT 11/09 Q1009 Kopaida Sterea Ellada
27/03/2015 LGV9 270930Z 27003KT 12/11 Q1003 Lamia Sterea Ellada
29/03/2015 LGJ8 290830Z 18000KT 12/10 Q1008 Lefkochori Sterea Ellada
18/03/2015 LGI8 181330Z 04502KT 10/02 Q1024 Livadeia Sterea Ellada
29/03/2015 LGE7 290830Z 00000KT -RA 12/10 Q1007 Makrakomi Sterea Ellada
29/03/2015 LGA6 290830Z 24802KT 04/03 Q1007 Mavrolithari - Vardousia Sterea Ellada
29/03/2015 LGK8 290930Z 09008KT 07/05 Q1007 Myriki Sterea Ellada
29/03/2015 LGG4 290830Z 31501KT 08/05 Q1008 Orini Nafpaktia Sterea Ellada
29/03/2015 LGA4 290800Z 22507KT 00/00 Q1004 Parnassos Sterea Ellada
28/03/2015 LGF9 280730Z 00000KT -SN 01/01 Q1001 Parnassos1950 Sterea Ellada
29/03/2015 LGL0 290830Z 29301KT 11/08 Q1010 Polydroso Sterea Ellada
07/03/2015 LGR7 071230Z 04508KT 11/09 Q1025 Prasino - Viotia Sterea Ellada
29/03/2015 LG69 290930Z 29303KT 13/10 Q1009 Tanagra Sterea Ellada
29/03/2015 LGO6 290830Z 24804KT 13/10 Q1010 Theologos Sterea Ellada
29/03/2015 LG94 290830Z 00000KT 74/59 Q10099 Hortiatis Thes/niki
29/03/2015 LG15 290913Z 31706KT 15/M05 Q1012 Kamara Thes/niki Thes/niki
20/03/2015 LGA5 200930Z 20303KT 07/02 Q1017 Lagadas Thes/niki
29/03/2015 LG7C 290830Z 31510KT 13/05 Q1010 Nea Michaniona Thes/niki
29/03/2015 LG8C 290830Z 33813G24KT 14/07 Q1009 Sindos Thes/niki
24/03/2015 LG11 240730Z 12901KT 10/06 Q1006 West Thes/niki Thes/niki
29/03/2015 LGV5 290530Z 20300KT 07/04 Q1007 Tsamantas Thesprotia
29/03/2015 LGL4 290830Z 15802KT 07/04 Q1010 Gardiki Thessalia
29/03/2015 LGW3 290830Z 04501KT 14/06 Q1008 Kalabaka Thessalia
17/03/2015 LG2A 171030Z 09008KT 13/05 Q1030 Karditsa Thessalia
29/03/2015 LGU3 290900Z 022864G3456KT 137/85 Q10075 Larissa Thessalia
02/03/2015 LGL6 021430Z 20303KT 18/07 Q1014 Larissa Thessalia
29/03/2015 LGS8 290830Z 27000KT 12/08 Q1009 Larissa - Agia Thessalia
29/03/2015 LGL7 290830Z 00001KT 09/06 Q1006 Limni Plastira Thessalia
29/03/2015 LG6B 290930Z 18004KT 13/09 Q1007 Moni Paou Thessalia
26/03/2015 LGU4 260700Z 29304KT 04/M07 Q1013 Olympos Thessalia
29/03/2015 LG7A 290900Z 3158694G13878KT 149/57 Q10089 Pedio Areos Volou Thessalia
29/03/2015 LGE2 290830Z 09006KT 08/04 Q1008 Pertouli Thessalia
19/03/2015 LGY2 191530Z 11304KT 12/04 Q1019 Portaria - Pelio Thessalia
29/03/2015 LG80 290830Z 00014KT 13/07 Q1010 Skopelos - Sporades Thessalia
29/03/2015 LG24 290930Z 31513KT 13/09 Q1009 Sporades - Skiathos Thessalia
29/03/2015 LG57 290530Z 31503KT 10/05 Q1008 Trikala Thessalia
29/03/2015 LG51 290830Z 15803KT 14/10 Q1008 Volos Thessalia
29/03/2015 LGG3 290830Z 33803KT 10/03 Q1011 Zagora EAA Thessalia
29/03/2015 LGD8 290830Z 06803KT 13/10 Q1008 Alexandroupolis Thraki
27/03/2015 LGM9 271530Z 13507KT -RA 15/12 Q1001 Imeros Thraki
09/03/2015 LG35 091750Z 33604KT 23/15 Q1013 Komotini Thraki
29/03/2015 LGL2 290830Z 33803KT 13/08 Q1009 Metaxades - Evros Thraki
29/03/2015 LG31 290830Z 33806KT 12/06 Q1008 Orestiada Thraki
29/03/2015 LGC1 290830Z 00000KT 14/11 Q1008 Samothraki Thraki
29/03/2015 LGC6 290830Z 15804KT 12/10 Q1008 Xanthi Thraki
www.meteorologia.gr